createdAt,value
2019-02-11T00:00:11.644Z,116.03
2019-02-11T00:00:42.888Z,114.47
2019-02-11T00:01:14.091Z,113.90
2019-02-11T00:01:46.335Z,113.83
2019-02-11T00:02:17.560Z,115.50
2019-02-11T00:02:48.815Z,116.95
2019-02-11T00:03:20.029Z,112.47
2019-02-11T00:03:59.260Z,115.92
2019-02-11T00:04:26.462Z,116.35
2019-02-11T00:04:57.699Z,120.35
2019-02-11T00:05:28.902Z,117.37
2019-02-11T00:06:00.126Z,118.05
2019-02-11T00:06:31.353Z,116.05
2019-02-11T00:07:02.572Z,116.22
2019-02-11T00:07:33.801Z,119.82
2019-02-11T00:08:05.454Z,115.30
2019-02-11T00:08:36.660Z,116.00
2019-02-11T00:09:07.950Z,118.15
2019-02-11T00:09:39.195Z,117.10
2019-02-11T00:10:10.455Z,118.13
2019-02-11T00:10:41.684Z,113.05
2019-02-11T00:11:13.229Z,112.95
2019-02-11T00:11:44.435Z,115.45
2019-02-11T00:12:15.676Z,114.12
2019-02-11T00:12:46.961Z,112.35
2019-02-11T00:13:18.520Z,112.10
2019-02-11T00:13:49.771Z,113.70
2019-02-11T00:14:21.042Z,113.15
2019-02-11T00:14:52.261Z,110.63
2019-02-11T00:15:25.772Z,109.80
2019-02-11T00:15:56.978Z,111.92
2019-02-11T00:16:28.230Z,108.67
2019-02-11T00:16:59.444Z,110.57
2019-02-11T00:17:30.678Z,104.43
2019-02-11T00:18:01.904Z,104.92
2019-02-11T00:18:33.140Z,106.60
2019-02-11T00:19:04.373Z,104.10
2019-02-11T00:19:35.634Z,101.35
2019-02-11T00:20:06.853Z,107.35
2019-02-11T00:20:38.067Z,107.60
2019-02-11T00:21:09.280Z,107.40
2019-02-11T00:21:41.417Z,108.27
2019-02-11T00:22:12.605Z,108.80
2019-02-11T00:22:43.851Z,109.17
2019-02-11T00:23:15.102Z,109.67
2019-02-11T00:23:46.322Z,107.27
2019-02-11T00:24:17.544Z,107.45
2019-02-11T00:24:48.797Z,105.12
2019-02-11T00:25:20.074Z,109.72
2019-02-11T00:25:51.294Z,110.45
2019-02-11T00:26:22.495Z,105.87
2019-02-11T00:26:53.730Z,110.75
2019-02-11T00:27:26.053Z,110.75
2019-02-11T00:27:57.306Z,110.42
2019-02-11T00:28:28.530Z,113.08
2019-02-11T00:28:59.785Z,113.35
2019-02-11T00:29:30.993Z,110.75
2019-02-11T00:30:02.229Z,110.28
2019-02-11T00:30:34.305Z,108.92
2019-02-11T00:31:05.609Z,112.68
2019-02-11T00:31:36.821Z,112.52
2019-02-11T00:32:08.051Z,111.30
2019-02-11T00:32:39.260Z,113.83
2019-02-11T00:33:10.542Z,112.88
2019-02-11T00:33:41.745Z,112.50
2019-02-11T00:34:12.983Z,111.15
2019-02-11T00:34:44.209Z,110.15
2019-02-11T00:35:15.417Z,115.92
2019-02-11T00:35:46.649Z,112.22
2019-02-11T00:36:17.897Z,116.08
2019-02-11T00:36:49.139Z,115.95
2019-02-11T00:37:20.349Z,113.03
2019-02-11T00:37:51.563Z,116.82
2019-02-11T00:38:25.166Z,115.60
2019-02-11T00:38:56.373Z,112.52
2019-02-11T00:39:27.588Z,118.95
2019-02-11T00:39:58.812Z,115.47
2019-02-11T00:40:30.066Z,113.92
2019-02-11T00:41:01.287Z,117.25
2019-02-11T00:41:32.484Z,114.85
2019-02-11T00:42:03.749Z,114.12
2019-02-11T00:42:38.063Z,116.35
2019-02-11T00:43:09.300Z,118.25
2019-02-11T00:43:40.552Z,115.88
2019-02-11T00:44:11.759Z,115.32
2019-02-11T00:44:42.979Z,116.62
2019-02-11T00:45:15.015Z,117.35
2019-02-11T00:45:46.231Z,115.32
2019-02-11T00:46:17.440Z,113.68
2019-02-11T00:46:48.662Z,115.42
2019-02-11T00:47:19.870Z,113.68
2019-02-11T00:47:51.094Z,114.65
2019-02-11T00:48:22.338Z,116.25
2019-02-11T00:48:53.605Z,114.55
2019-02-11T00:49:24.838Z,116.75
2019-02-11T00:49:56.068Z,113.68
2019-02-11T00:50:27.310Z,116.00
2019-02-11T00:50:59.569Z,116.60
2019-02-11T00:51:33.021Z,116.88
2019-02-11T00:52:04.227Z,119.40
2019-02-11T00:52:35.521Z,117.85
2019-02-11T00:53:06.849Z,114.88
2019-02-11T00:53:38.056Z,115.22
2019-02-11T00:54:09.289Z,113.92
2019-02-11T00:54:40.515Z,115.72
2019-02-11T00:55:11.721Z,116.85
2019-02-11T00:55:42.930Z,115.45
2019-02-11T00:56:14.143Z,117.50
2019-02-11T00:56:45.763Z,118.37
2019-02-11T00:57:18.120Z,118.70
2019-02-11T00:57:49.331Z,117.85
2019-02-11T00:58:20.736Z,116.93
2019-02-11T00:58:51.973Z,114.15
2019-02-11T00:59:23.216Z,114.37
2019-02-11T00:59:54.421Z,110.48
2019-02-11T01:00:25.653Z,111.08
2019-02-11T01:00:56.860Z,112.68
2019-02-11T01:01:28.068Z,111.35
2019-02-11T01:01:59.274Z,114.80
2019-02-11T01:02:30.533Z,115.88
2019-02-11T01:03:01.741Z,116.42
2019-02-11T01:03:32.969Z,115.12
2019-02-11T01:04:04.207Z,119.50
2019-02-11T01:04:35.437Z,117.70
2019-02-11T01:05:06.679Z,119.95
2019-02-11T01:05:37.909Z,120.82
2019-02-11T01:06:09.130Z,118.62
2019-02-11T01:06:40.344Z,120.92
2019-02-11T01:07:11.546Z,122.92
2019-02-11T01:07:42.798Z,123.02
2019-02-11T01:08:14.002Z,120.10
2019-02-11T01:08:45.638Z,116.57
2019-02-11T01:09:16.843Z,114.40
2019-02-11T01:09:48.066Z,114.35
2019-02-11T01:10:19.280Z,116.97
2019-02-11T01:10:50.486Z,118.17
2019-02-11T01:11:21.736Z,116.42
2019-02-11T01:11:52.950Z,117.50
2019-02-11T01:12:24.157Z,125.38
2019-02-11T01:12:56.491Z,127.22
2019-02-11T01:13:28.178Z,127.53
2019-02-11T01:14:00.372Z,123.97
2019-02-11T01:14:31.577Z,127.17
2019-02-11T01:15:02.799Z,124.18
2019-02-11T01:15:34.014Z,124.18
2019-02-11T01:16:05.243Z,123.45
2019-02-11T01:16:36.477Z,124.30
2019-02-11T01:17:07.702Z,123.65
2019-02-11T01:17:38.921Z,126.12
2019-02-11T01:18:10.127Z,127.87
2019-02-11T01:18:43.524Z,124.85
2019-02-11T01:19:14.720Z,128.47
2019-02-11T01:19:45.937Z,123.50
2019-02-11T01:20:17.133Z,125.87
2019-02-11T01:20:48.363Z,122.98
2019-02-11T01:21:19.582Z,123.28
2019-02-11T01:21:50.806Z,124.82
2019-02-11T01:22:22.035Z,128.85
2019-02-11T01:22:53.240Z,135.85
2019-02-11T01:23:24.519Z,134.12
2019-02-11T01:23:55.721Z,134.57
2019-02-11T01:24:26.948Z,137.45
2019-02-11T01:24:58.156Z,141.03
2019-02-11T01:25:29.420Z,134.80
2019-02-11T01:26:00.630Z,127.22
2019-02-11T01:26:31.865Z,128.05
2019-02-11T01:27:03.093Z,124.42
2019-02-11T01:27:34.311Z,124.85
2019-02-11T01:28:06.664Z,121.40
2019-02-11T01:28:37.890Z,130.43
2019-02-11T01:29:09.103Z,134.07
2019-02-11T01:29:40.314Z,134.95
2019-02-11T01:30:11.541Z,130.37
2019-02-11T01:30:42.804Z,135.80
2019-02-11T01:31:14.020Z,135.95
2019-02-11T01:31:45.233Z,134.45
2019-02-11T01:32:16.465Z,133.27
2019-02-11T01:32:47.670Z,133.60
2019-02-11T01:33:18.881Z,136.97
2019-02-11T01:33:57.114Z,136.40
2019-02-11T01:34:28.420Z,131.47
2019-02-11T01:34:59.640Z,131.15
2019-02-11T01:35:30.893Z,129.78
2019-02-11T01:36:02.102Z,127.85
2019-02-11T01:36:33.317Z,127.05
2019-02-11T01:37:04.563Z,130.37
2019-02-11T01:37:35.806Z,135.48
2019-02-11T01:38:07.022Z,144.10
2019-02-11T01:38:38.227Z,146.72
2019-02-11T01:39:09.459Z,146.82
2019-02-11T01:39:40.669Z,144.68
2019-02-11T01:40:11.889Z,147.55
2019-02-11T01:40:43.096Z,144.35
2019-02-11T01:41:14.347Z,147.25
2019-02-11T01:41:45.554Z,144.10
2019-02-11T01:42:16.789Z,138.40
2019-02-11T01:42:47.997Z,143.65
2019-02-11T01:43:19.214Z,141.55
2019-02-11T01:43:50.424Z,136.22
2019-02-11T01:44:21.637Z,137.90
2019-02-11T01:44:52.844Z,144.60
2019-02-11T01:45:24.061Z,143.90
2019-02-11T01:45:55.348Z,142.53
2019-02-11T01:46:26.576Z,143.25
2019-02-11T01:46:57.814Z,143.43
2019-02-11T01:47:29.046Z,140.90
2019-02-11T01:48:02.322Z,143.22
2019-02-11T01:48:33.558Z,139.40
2019-02-11T01:49:07.630Z,137.97
2019-02-11T01:49:38.838Z,137.60
2019-02-11T01:50:10.069Z,134.97
2019-02-11T01:50:41.281Z,135.70
2019-02-11T01:51:12.548Z,132.12
2019-02-11T01:51:44.267Z,132.82
2019-02-11T01:52:15.488Z,133.20
2019-02-11T01:52:46.716Z,133.45
2019-02-11T01:53:17.953Z,131.45
2019-02-11T01:53:49.534Z,135.57
2019-02-11T01:54:20.747Z,135.12
2019-02-11T01:54:52.004Z,134.97
2019-02-11T01:55:23.236Z,133.57
2019-02-11T01:55:54.444Z,135.37
2019-02-11T01:56:25.694Z,133.75
2019-02-11T01:56:56.899Z,136.22
2019-02-11T01:57:28.123Z,135.68
2019-02-11T01:57:59.361Z,137.80
2019-02-11T01:58:30.592Z,138.25
2019-02-11T01:59:02.867Z,139.15
2019-02-11T01:59:34.073Z,141.32
2019-02-11T02:00:05.305Z,139.50
2019-02-11T02:00:37.637Z,141.82
2019-02-11T02:01:08.882Z,144.65
2019-02-11T02:01:40.566Z,143.62
2019-02-11T02:02:11.822Z,144.95
2019-02-11T02:02:43.012Z,141.82
2019-02-11T02:03:14.224Z,140.20
2019-02-11T02:03:45.460Z,143.40
2019-02-11T02:04:16.663Z,144.97
2019-02-11T02:04:47.894Z,145.57
2019-02-11T02:05:21.432Z,144.10
2019-02-11T02:05:52.737Z,139.05
2019-02-11T02:06:23.986Z,141.55
2019-02-11T02:06:55.229Z,142.47
2019-02-11T02:07:26.488Z,140.22
2019-02-11T02:07:59.692Z,141.00
2019-02-11T02:08:30.960Z,139.20
2019-02-11T02:09:02.212Z,138.52
2019-02-11T02:09:33.431Z,138.30
2019-02-11T02:10:04.644Z,134.65
2019-02-11T02:10:35.857Z,134.05
2019-02-11T02:11:07.063Z,133.30
2019-02-11T02:11:38.315Z,131.27
2019-02-11T02:12:09.530Z,129.78
2019-02-11T02:12:40.758Z,128.10
2019-02-11T02:13:12.029Z,122.33
2019-02-11T02:13:44.776Z,119.08
2019-02-11T02:14:20.800Z,122.90
2019-02-11T02:14:52.037Z,119.82
2019-02-11T02:15:23.250Z,118.72
2019-02-11T02:15:54.470Z,119.30
2019-02-11T02:16:25.682Z,121.55
2019-02-11T02:16:56.949Z,124.38
2019-02-11T02:17:28.156Z,119.45
2019-02-11T02:17:59.359Z,121.53
2019-02-11T02:18:30.619Z,126.85
2019-02-11T02:19:01.846Z,122.87
2019-02-11T02:19:33.051Z,120.87
2019-02-11T02:20:04.269Z,121.45
2019-02-11T02:20:35.493Z,121.00
2019-02-11T02:21:06.727Z,121.92
2019-02-11T02:21:37.950Z,123.62
2019-02-11T02:22:09.213Z,121.17
2019-02-11T02:22:40.432Z,123.28
2019-02-11T02:23:11.653Z,123.20
2019-02-11T02:23:43.292Z,125.35
2019-02-11T02:24:14.496Z,120.87
2019-02-11T02:24:45.708Z,120.53
2019-02-11T02:25:16.920Z,121.20
2019-02-11T02:25:48.167Z,118.70
2019-02-11T02:26:19.392Z,120.30
2019-02-11T02:26:50.590Z,120.35
2019-02-11T02:27:24.954Z,119.35
2019-02-11T02:27:56.168Z,119.13
2019-02-11T02:28:27.380Z,122.02
2019-02-11T02:28:58.609Z,119.35
2019-02-11T02:29:29.892Z,124.50
2019-02-11T02:30:05.273Z,124.27
2019-02-11T02:30:36.541Z,123.65
2019-02-11T02:31:08.227Z,120.92
2019-02-11T02:31:39.480Z,122.87
2019-02-11T02:32:10.671Z,123.87
2019-02-11T02:32:41.907Z,124.02
2019-02-11T02:33:13.117Z,121.07
2019-02-11T02:33:44.394Z,124.20
2019-02-11T02:34:15.605Z,118.65
2019-02-11T02:34:46.813Z,118.42
2019-02-11T02:35:20.250Z,120.92
2019-02-11T02:35:51.767Z,118.55
2019-02-11T02:36:22.984Z,119.87
2019-02-11T02:36:54.194Z,120.50
2019-02-11T02:37:25.399Z,118.87
2019-02-11T02:37:56.642Z,119.95
2019-02-11T02:38:27.856Z,119.00
2019-02-11T02:38:59.144Z,123.55
2019-02-11T02:39:30.370Z,121.35
2019-02-11T02:40:01.580Z,120.75
2019-02-11T02:40:33.886Z,120.17
2019-02-11T02:41:06.209Z,122.15
2019-02-11T02:41:37.452Z,123.90
2019-02-11T02:42:08.686Z,123.62
2019-02-11T02:42:39.917Z,126.40
2019-02-11T02:43:18.197Z,122.30
2019-02-11T02:43:55.710Z,122.47
2019-02-11T02:44:22.412Z,122.67
2019-02-11T02:44:53.672Z,125.65
2019-02-11T02:45:24.881Z,126.05
2019-02-11T02:45:56.141Z,131.75
2019-02-11T02:46:27.365Z,132.25
2019-02-11T02:46:58.645Z,134.00
2019-02-11T02:47:29.875Z,134.82
2019-02-11T02:48:01.121Z,136.15
2019-02-11T02:48:32.366Z,130.75
2019-02-11T02:49:03.583Z,136.28
2019-02-11T02:49:34.837Z,135.18
2019-02-11T02:50:06.059Z,137.25
2019-02-11T02:50:37.265Z,136.15
2019-02-11T02:51:08.470Z,138.88
2019-02-11T02:51:39.689Z,142.53
2019-02-11T02:52:10.943Z,134.72
2019-02-11T02:52:43.214Z,136.57
2019-02-11T02:53:14.434Z,136.65
2019-02-11T02:53:45.677Z,135.50
2019-02-11T02:54:16.921Z,134.95
2019-02-11T02:54:48.146Z,138.05
2019-02-11T02:55:21.886Z,136.68
2019-02-11T02:55:54.149Z,134.40
2019-02-11T02:56:25.389Z,135.60
2019-02-11T02:56:56.661Z,136.47
2019-02-11T02:57:27.934Z,137.88
2019-02-11T02:57:59.178Z,135.90
2019-02-11T02:58:30.395Z,134.15
2019-02-11T02:59:01.612Z,132.32
2019-02-11T02:59:32.827Z,135.57
2019-02-11T03:00:04.050Z,134.10
2019-02-11T03:00:35.259Z,130.00
2019-02-11T03:01:06.491Z,132.70
2019-02-11T03:01:37.721Z,132.25
2019-02-11T03:02:08.933Z,125.67
2019-02-11T03:02:40.152Z,130.18
2019-02-11T03:03:11.426Z,130.25
2019-02-11T03:03:42.642Z,128.02
2019-02-11T03:04:13.877Z,132.43
2019-02-11T03:04:45.091Z,129.15
2019-02-11T03:05:16.300Z,128.95
2019-02-11T03:05:47.507Z,127.65
2019-02-11T03:06:18.749Z,129.65
2019-02-11T03:06:50.997Z,129.95
2019-02-11T03:07:22.572Z,127.75
2019-02-11T03:07:53.791Z,131.15
2019-02-11T03:08:25.236Z,127.35
2019-02-11T03:08:56.436Z,128.72
2019-02-11T03:09:27.657Z,132.85
2019-02-11T03:09:58.891Z,121.33
2019-02-11T03:10:30.122Z,121.15
2019-02-11T03:11:01.376Z,124.18
2019-02-11T03:11:32.575Z,128.18
2019-02-11T03:12:03.793Z,127.15
2019-02-11T03:12:35.049Z,122.92
2019-02-11T03:13:06.269Z,120.05
2019-02-11T03:13:37.542Z,118.15
2019-02-11T03:14:08.949Z,119.62
2019-02-11T03:14:41.262Z,119.17
2019-02-11T03:15:12.465Z,120.33
2019-02-11T03:15:43.679Z,113.60
2019-02-11T03:16:14.930Z,119.17
2019-02-11T03:16:46.147Z,118.42
2019-02-11T03:17:17.369Z,114.00
2019-02-11T03:17:48.589Z,114.17
2019-02-11T03:18:19.850Z,116.00
2019-02-11T03:18:51.116Z,115.28
2019-02-11T03:19:22.325Z,107.80
2019-02-11T03:19:53.534Z,111.57
2019-02-11T03:20:24.760Z,111.85
2019-02-11T03:20:56.047Z,111.88
2019-02-11T03:21:27.268Z,112.15
2019-02-11T03:21:58.487Z,116.70
2019-02-11T03:22:29.757Z,118.13
2019-02-11T03:23:01.005Z,117.75
2019-02-11T03:23:32.217Z,117.20
2019-02-11T03:24:03.469Z,119.22
2019-02-11T03:24:34.679Z,118.05
2019-02-11T03:25:05.911Z,116.17
2019-02-11T03:25:37.112Z,116.35
2019-02-11T03:26:08.351Z,118.80
2019-02-11T03:26:41.821Z,117.00
2019-02-11T03:27:15.293Z,115.60
2019-02-11T03:27:46.515Z,113.70
2019-02-11T03:28:17.725Z,107.63
2019-02-11T03:28:48.936Z,110.22
2019-02-11T03:29:20.363Z,109.37
2019-02-11T03:29:51.608Z,108.52
2019-02-11T03:30:22.855Z,108.72
2019-02-11T03:30:54.109Z,106.85
2019-02-11T03:31:25.306Z,107.15
2019-02-11T03:31:59.842Z,110.97
2019-02-11T03:32:30.463Z,111.03
2019-02-11T03:33:01.695Z,108.90
2019-02-11T03:33:33.982Z,109.90
2019-02-11T03:34:05.188Z,106.75
2019-02-11T03:34:36.400Z,108.85
2019-02-11T03:35:07.654Z,110.10
2019-02-11T03:35:38.903Z,105.95
2019-02-11T03:36:10.112Z,108.35
2019-02-11T03:36:41.408Z,107.32
2019-02-11T03:37:12.666Z,109.40
2019-02-11T03:37:43.876Z,104.65
2019-02-11T03:38:15.119Z,105.92
2019-02-11T03:38:56.954Z,101.38
2019-02-11T03:39:28.193Z,101.45
2019-02-11T03:39:59.431Z,103.30
2019-02-11T03:40:30.630Z,105.00
2019-02-11T03:41:01.874Z,105.17
2019-02-11T03:41:34.139Z,107.50
2019-02-11T03:42:06.098Z,106.30
2019-02-11T03:42:37.307Z,105.20
2019-02-11T03:43:08.538Z,103.90
2019-02-11T03:43:39.757Z,103.25
2019-02-11T03:44:15.018Z,105.17
2019-02-11T03:44:43.914Z,102.58
2019-02-11T03:45:15.128Z,104.25
2019-02-11T03:45:46.365Z,99.90
2019-02-11T03:46:17.619Z,100.62
2019-02-11T03:46:48.845Z,100.18
2019-02-11T03:47:20.070Z,100.58
2019-02-11T03:47:51.294Z,99.80
2019-02-11T03:48:22.488Z,101.35
2019-02-11T03:48:53.709Z,103.70
2019-02-11T03:49:24.938Z,100.53
2019-02-11T03:49:56.163Z,99.83
2019-02-11T03:50:27.382Z,98.03
2019-02-11T03:50:58.599Z,97.42
2019-02-11T03:51:37.238Z,96.60
2019-02-11T03:52:08.449Z,97.75
2019-02-11T03:52:39.733Z,103.42
2019-02-11T03:53:10.945Z,99.75
2019-02-11T03:53:43.280Z,97.88
2019-02-11T03:54:16.778Z,99.45
2019-02-11T03:54:47.991Z,101.45
2019-02-11T03:55:19.209Z,100.60
2019-02-11T03:55:50.441Z,103.22
2019-02-11T03:56:21.652Z,108.07
2019-02-11T03:56:52.909Z,104.23
2019-02-11T03:57:24.153Z,104.05
2019-02-11T03:57:55.401Z,105.03
2019-02-11T03:58:26.663Z,102.72
2019-02-11T03:59:00.203Z,102.92
2019-02-11T03:59:31.455Z,102.38
2019-02-11T04:00:04.746Z,104.55
2019-02-11T04:00:35.996Z,105.20
2019-02-11T04:01:07.233Z,100.60
2019-02-11T04:01:38.442Z,105.05
2019-02-11T04:02:09.662Z,102.05
2019-02-11T04:02:41.278Z,100.33
2019-02-11T04:03:12.507Z,103.10
2019-02-11T04:03:43.719Z,104.35
2019-02-11T04:04:14.923Z,101.35
2019-02-11T04:04:46.151Z,101.47
2019-02-11T04:05:17.369Z,101.22
2019-02-11T04:05:48.652Z,102.40
2019-02-11T04:06:20.038Z,103.80
2019-02-11T04:06:51.310Z,102.45
2019-02-11T04:07:22.529Z,103.17
2019-02-11T04:07:53.764Z,105.27
2019-02-11T04:08:24.986Z,105.27
2019-02-11T04:08:56.204Z,104.63
2019-02-11T04:09:27.422Z,108.83
2019-02-11T04:10:00.980Z,105.97
2019-02-11T04:10:32.192Z,102.90
2019-02-11T04:11:04.513Z,105.85
2019-02-11T04:11:35.811Z,108.25
2019-02-11T04:12:07.022Z,107.10
2019-02-11T04:12:38.254Z,107.85
2019-02-11T04:13:09.462Z,108.70
2019-02-11T04:13:43.108Z,110.48
2019-02-11T04:14:14.332Z,110.48
2019-02-11T04:14:45.563Z,110.57
2019-02-11T04:15:16.825Z,110.97
2019-02-11T04:15:48.042Z,106.87
2019-02-11T04:16:19.818Z,110.42
2019-02-11T04:16:51.077Z,113.55
2019-02-11T04:17:22.288Z,113.05
2019-02-11T04:17:53.512Z,116.30
2019-02-11T04:18:24.725Z,112.35
2019-02-11T04:18:55.981Z,112.17
2019-02-11T04:19:27.218Z,110.22
2019-02-11T04:19:58.755Z,110.83
2019-02-11T04:20:32.325Z,107.10
2019-02-11T04:21:04.607Z,110.20
2019-02-11T04:21:35.884Z,109.92
2019-02-11T04:22:07.142Z,110.75
2019-02-11T04:22:38.400Z,112.80
2019-02-11T04:23:09.654Z,110.52
2019-02-11T04:23:40.850Z,111.88
2019-02-11T04:24:12.051Z,116.62
2019-02-11T04:24:43.294Z,116.25
2019-02-11T04:25:14.511Z,112.52
2019-02-11T04:25:45.731Z,113.40
2019-02-11T04:26:16.962Z,111.72
2019-02-11T04:26:48.204Z,110.75
2019-02-11T04:27:19.543Z,109.87
2019-02-11T04:27:50.753Z,110.22
2019-02-11T04:28:21.952Z,115.82
2019-02-11T04:28:53.185Z,112.05
2019-02-11T04:29:24.408Z,116.73
2019-02-11T04:29:55.659Z,114.20
2019-02-11T04:30:27.945Z,115.25
2019-02-11T04:31:03.517Z,108.90
2019-02-11T04:31:34.730Z,105.25
2019-02-11T04:32:06.346Z,103.83
2019-02-11T04:32:37.584Z,96.53
2019-02-11T04:33:08.778Z,92.05
2019-02-11T04:33:40.007Z,91.02
2019-02-11T04:34:11.276Z,86.80
2019-02-11T04:34:42.692Z,94.67
2019-02-11T04:35:13.900Z,97.53
2019-02-11T04:35:45.102Z,94.90
2019-02-11T04:36:16.316Z,90.00
2019-02-11T04:36:47.536Z,84.97
2019-02-11T04:37:18.748Z,86.05
2019-02-11T04:37:49.980Z,87.27
2019-02-11T04:38:21.194Z,93.07
2019-02-11T04:38:52.410Z,97.27
2019-02-11T04:39:23.692Z,97.75
2019-02-11T04:39:54.900Z,98.55
2019-02-11T04:40:26.120Z,100.55
2019-02-11T04:40:57.331Z,103.90
2019-02-11T04:41:28.570Z,103.10
2019-02-11T04:41:59.779Z,105.50
2019-02-11T04:42:31.041Z,103.92
2019-02-11T04:43:02.282Z,107.20
2019-02-11T04:43:33.515Z,112.35
2019-02-11T04:44:04.736Z,112.25
2019-02-11T04:44:35.957Z,114.72
2019-02-11T04:45:07.111Z,115.22
2019-02-11T04:45:38.336Z,112.70
2019-02-11T04:46:09.591Z,109.32
2019-02-11T04:46:40.845Z,114.25
2019-02-11T04:47:14.099Z,111.17
2019-02-11T04:47:45.307Z,115.22
2019-02-11T04:48:16.953Z,116.08
2019-02-11T04:48:48.172Z,116.42
2019-02-11T04:49:19.377Z,113.72
2019-02-11T04:49:50.617Z,111.45
2019-02-11T04:50:21.824Z,111.32
2019-02-11T04:50:53.037Z,112.77
2019-02-11T04:51:24.247Z,112.85
2019-02-11T04:51:55.484Z,108.40
2019-02-11T04:52:26.734Z,110.25
2019-02-11T04:52:57.940Z,112.08
2019-02-11T04:53:29.149Z,115.55
2019-02-11T04:54:00.683Z,110.88
2019-02-11T04:54:31.895Z,114.30
2019-02-11T04:55:03.127Z,111.37
2019-02-11T04:55:34.327Z,112.50
2019-02-11T04:56:05.548Z,109.45
2019-02-11T04:56:36.752Z,111.80
2019-02-11T04:57:07.980Z,113.47
2019-02-11T04:57:39.229Z,110.48
2019-02-11T04:58:10.462Z,113.10
2019-02-11T04:58:41.669Z,115.40
2019-02-11T04:59:12.959Z,114.22
2019-02-11T04:59:44.177Z,113.68
2019-02-11T05:00:15.429Z,111.25
2019-02-11T05:00:46.700Z,112.40
2019-02-11T05:01:17.911Z,109.65
2019-02-11T05:01:49.207Z,114.42
2019-02-11T05:02:20.444Z,111.32
2019-02-11T05:02:51.635Z,105.87
2019-02-11T05:03:22.857Z,94.70
2019-02-11T05:03:54.180Z,101.22
2019-02-11T05:04:25.335Z,99.60
2019-02-11T05:04:59.207Z,101.27
2019-02-11T05:05:30.395Z,103.80
2019-02-11T05:06:01.591Z,101.95
2019-02-11T05:06:32.825Z,98.92
2019-02-11T05:07:04.093Z,96.15
2019-02-11T05:07:35.316Z,95.00
2019-02-11T05:08:06.531Z,98.78
2019-02-11T05:08:38.595Z,97.53
2019-02-11T05:09:09.834Z,99.72
2019-02-11T05:09:41.074Z,110.30
2019-02-11T05:10:12.291Z,110.65
2019-02-11T05:10:43.554Z,109.27
2019-02-11T05:11:14.770Z,111.68
2019-02-11T05:11:46.042Z,117.13
2019-02-11T05:12:17.292Z,116.97
2019-02-11T05:12:48.536Z,115.42
2019-02-11T05:13:19.788Z,108.72
2019-02-11T05:13:50.968Z,109.78
2019-02-11T05:14:22.191Z,105.32
2019-02-11T05:14:53.406Z,89.77
2019-02-11T05:15:24.616Z,91.37
2019-02-11T05:15:55.880Z,99.87
2019-02-11T05:16:29.372Z,88.97
2019-02-11T05:17:00.591Z,96.60
2019-02-11T05:17:31.810Z,99.17
2019-02-11T05:18:03.094Z,99.32
2019-02-11T05:18:34.328Z,95.97
2019-02-11T05:19:05.581Z,100.02
2019-02-11T05:19:36.780Z,98.40
2019-02-11T05:20:07.981Z,97.72
2019-02-11T05:20:39.227Z,99.60
2019-02-11T05:21:10.443Z,89.72
2019-02-11T05:21:42.738Z,98.42
2019-02-11T05:22:13.962Z,108.15
2019-02-11T05:22:45.210Z,111.47
2019-02-11T05:23:16.390Z,121.53
2019-02-11T05:23:48.542Z,119.37
2019-02-11T05:24:19.788Z,117.60
2019-02-11T05:24:50.987Z,117.75
2019-02-11T05:25:29.273Z,109.87
2019-02-11T05:26:00.510Z,110.68
2019-02-11T05:26:31.808Z,110.88
2019-02-11T05:27:03.044Z,116.65
2019-02-11T05:27:34.258Z,115.82
2019-02-11T05:28:06.407Z,117.62
2019-02-11T05:28:39.633Z,117.05
2019-02-11T05:29:10.858Z,121.22
2019-02-11T05:29:42.070Z,120.02
2019-02-11T05:30:13.294Z,118.40
2019-02-11T05:30:44.521Z,116.88
2019-02-11T05:31:18.123Z,113.97
2019-02-11T05:31:49.346Z,114.52
2019-02-11T05:32:20.562Z,114.00
2019-02-11T05:32:54.856Z,113.83
2019-02-11T05:33:27.132Z,110.12
2019-02-11T05:33:58.371Z,109.57
2019-02-11T05:34:29.583Z,115.95
2019-02-11T05:35:00.811Z,110.10
2019-02-11T05:35:32.034Z,112.42
2019-02-11T05:36:03.235Z,115.32
2019-02-11T05:36:34.452Z,110.15
2019-02-11T05:37:05.668Z,111.95
2019-02-11T05:37:36.888Z,111.80
2019-02-11T05:38:08.141Z,100.30
2019-02-11T05:38:39.345Z,101.22
2019-02-11T05:39:10.554Z,105.83
2019-02-11T05:39:41.780Z,102.27
2019-02-11T05:40:13.003Z,106.40
2019-02-11T05:40:44.220Z,103.55
2019-02-11T05:41:15.434Z,101.10
2019-02-11T05:41:46.651Z,105.78
2019-02-11T05:42:17.878Z,105.30
2019-02-11T05:42:49.090Z,107.07
2019-02-11T05:43:20.329Z,107.10
2019-02-11T05:43:51.565Z,104.17
2019-02-11T05:44:22.837Z,106.27
2019-02-11T05:44:54.407Z,104.38
2019-02-11T05:45:25.749Z,103.27
2019-02-11T05:45:56.953Z,103.25
2019-02-11T05:46:28.159Z,105.00
2019-02-11T05:46:59.367Z,109.85
2019-02-11T05:47:30.583Z,110.52
2019-02-11T05:48:01.797Z,112.03
2019-02-11T05:48:33.012Z,108.10
2019-02-11T05:49:04.226Z,102.67
2019-02-11T05:49:35.510Z,105.20
2019-02-11T05:50:06.725Z,108.27
2019-02-11T05:50:37.944Z,108.35
2019-02-11T05:51:09.181Z,109.92
2019-02-11T05:51:40.407Z,101.00
2019-02-11T05:52:11.618Z,107.83
2019-02-11T05:52:42.846Z,107.03
2019-02-11T05:53:14.059Z,105.85
2019-02-11T05:53:45.263Z,101.67
2019-02-11T05:54:16.493Z,107.97
2019-02-11T05:54:47.741Z,106.03
2019-02-11T05:55:19.005Z,99.03
2019-02-11T05:55:50.208Z,98.42
2019-02-11T05:56:21.436Z,104.07
2019-02-11T05:56:52.640Z,101.80
2019-02-11T05:57:24.882Z,103.65
2019-02-11T05:57:56.094Z,102.32
2019-02-11T05:58:27.336Z,103.07
2019-02-11T05:58:58.563Z,105.60
2019-02-11T05:59:29.765Z,106.75
2019-02-11T06:00:01.028Z,112.50
2019-02-11T06:00:32.255Z,112.65
2019-02-11T06:01:03.471Z,122.35
2019-02-11T06:01:34.759Z,123.80
2019-02-11T06:02:05.943Z,125.12
2019-02-11T06:02:37.170Z,119.53
2019-02-11T06:03:09.595Z,121.17
2019-02-11T06:03:40.956Z,120.30
2019-02-11T06:04:12.165Z,127.15
2019-02-11T06:04:43.371Z,164.32
2019-02-11T06:05:14.596Z,185.03
2019-02-11T06:05:45.806Z,190.60
2019-02-11T06:06:17.069Z,210.30
2019-02-11T06:06:48.278Z,202.03
2019-02-11T06:07:19.518Z,207.25
2019-02-11T06:07:50.746Z,186.20
2019-02-11T06:08:21.965Z,197.55
2019-02-11T06:08:53.183Z,185.35
2019-02-11T06:09:24.396Z,180.55
2019-02-11T06:09:55.648Z,168.07
2019-02-11T06:10:27.984Z,175.97
2019-02-11T06:10:59.189Z,170.82
2019-02-11T06:11:33.640Z,170.57
2019-02-11T06:12:07.928Z,175.82
2019-02-11T06:12:39.149Z,178.20
2019-02-11T06:13:10.366Z,176.80
2019-02-11T06:13:41.595Z,182.35
2019-02-11T06:14:12.819Z,192.92
2019-02-11T06:14:44.030Z,185.88
2019-02-11T06:15:15.240Z,174.12
2019-02-11T06:15:46.469Z,170.43
2019-02-11T06:16:18.412Z,178.95
2019-02-11T06:16:49.620Z,188.82
2019-02-11T06:17:20.825Z,180.05
2019-02-11T06:17:52.043Z,189.93
2019-02-11T06:18:23.252Z,188.52
2019-02-11T06:18:54.480Z,191.75
2019-02-11T06:19:25.704Z,203.47
2019-02-11T06:19:56.920Z,192.07
2019-02-11T06:20:28.154Z,198.05
2019-02-11T06:20:59.402Z,197.15
2019-02-11T06:21:30.652Z,199.30
2019-02-11T06:22:01.856Z,213.82
2019-02-11T06:22:33.066Z,211.05
2019-02-11T06:23:04.278Z,218.60
2019-02-11T06:23:35.845Z,215.40
2019-02-11T06:24:07.065Z,206.10
2019-02-11T06:24:38.282Z,218.57
2019-02-11T06:25:09.513Z,211.57
2019-02-11T06:25:40.760Z,208.47
2019-02-11T06:26:11.972Z,211.85
2019-02-11T06:26:43.180Z,213.45
2019-02-11T06:27:14.387Z,211.72
2019-02-11T06:27:45.657Z,208.15
2019-02-11T06:28:16.835Z,206.80
2019-02-11T06:28:48.100Z,211.60
2019-02-11T06:29:19.333Z,206.60
2019-02-11T06:29:50.560Z,207.12
2019-02-11T06:30:21.772Z,213.70
2019-02-11T06:30:52.987Z,207.18
2019-02-11T06:31:24.209Z,196.55
2019-02-11T06:31:55.419Z,201.00
2019-02-11T06:32:26.626Z,193.02
2019-02-11T06:32:57.841Z,188.65
2019-02-11T06:33:29.047Z,185.10